createdAt,value
2019-01-18T00:00:00.195Z,3.30
2019-01-18T00:01:00.132Z,7.10
2019-01-18T00:02:00.106Z,4.00
2019-01-18T00:03:00.091Z,4.60
2019-01-18T00:04:00.082Z,5.00
2019-01-18T00:05:00.182Z,5.10
2019-01-18T00:06:00.089Z,6.00
2019-01-18T00:07:00.058Z,5.50
2019-01-18T00:08:00.034Z,5.50
2019-01-18T00:09:00.023Z,4.80
2019-01-18T00:10:00.026Z,4.40
2019-01-18T00:11:00.021Z,4.20
2019-01-18T00:11:59.995Z,6.50
2019-01-18T00:12:59.985Z,3.70
2019-01-18T00:13:59.966Z,7.10
2019-01-18T00:14:59.954Z,6.50
2019-01-18T00:15:59.973Z,5.00
2019-01-18T00:16:59.938Z,4.80
2019-01-18T00:17:59.934Z,6.60
2019-01-18T00:18:59.909Z,5.30
2019-01-18T00:19:59.900Z,7.00
2019-01-18T00:20:59.905Z,5.50
2019-01-18T00:21:59.916Z,6.10
2019-01-18T00:22:59.867Z,5.50
2019-01-18T00:23:59.871Z,5.50
2019-01-18T00:24:59.843Z,5.00
2019-01-18T00:25:59.849Z,5.60
2019-01-18T00:26:59.823Z,5.80
2019-01-18T00:27:59.831Z,6.40
2019-01-18T00:28:59.803Z,7.50
2019-01-18T00:29:59.807Z,5.90
2019-01-18T00:30:59.813Z,7.10
2019-01-18T00:31:59.762Z,5.20
2019-01-18T00:32:59.758Z,5.00
2019-01-18T00:33:59.763Z,5.40
2019-01-18T00:34:59.730Z,6.70
2019-01-18T00:35:59.729Z,8.30
2019-01-18T00:36:59.739Z,5.60
2019-01-18T00:37:59.707Z,6.40
2019-01-18T00:38:59.693Z,6.70
2019-01-18T00:39:59.678Z,7.80
2019-01-18T00:40:59.673Z,5.80
2019-01-18T00:41:59.693Z,5.80
2019-01-18T00:42:59.643Z,6.20
2019-01-18T00:43:59.641Z,6.20
2019-01-18T00:44:59.640Z,6.20
2019-01-18T00:45:59.617Z,4.70
2019-01-18T00:46:59.651Z,6.20
2019-01-18T00:47:59.601Z,6.00
2019-01-18T00:48:59.589Z,6.00
2019-01-18T00:49:59.579Z,6.20
2019-01-18T00:50:59.569Z,6.70
2019-01-18T00:51:59.563Z,7.50
2019-01-18T00:52:59.538Z,5.80
2019-01-18T00:53:59.551Z,6.10
2019-01-18T00:54:59.517Z,6.70
2019-01-18T00:55:59.516Z,5.30
2019-01-18T00:56:59.512Z,6.10
2019-01-18T00:57:59.479Z,3.50
2019-01-18T00:58:59.470Z,5.00
2019-01-18T00:59:59.455Z,4.30
2019-01-18T01:00:59.463Z,4.70
2019-01-18T01:01:59.472Z,5.80
2019-01-18T01:02:59.433Z,4.80
2019-01-18T01:03:59.416Z,5.30
2019-01-18T01:04:59.422Z,4.90
2019-01-18T01:05:59.389Z,5.20
2019-01-18T01:06:59.394Z,3.90
2019-01-18T01:07:59.373Z,5.50
2019-01-18T01:08:59.365Z,3.90
2019-01-18T01:09:59.349Z,6.90
2019-01-18T01:10:59.334Z,3.00
2019-01-18T01:11:59.351Z,4.50
2019-01-18T01:12:59.324Z,4.10
2019-01-18T01:13:59.310Z,4.80
2019-01-18T01:14:59.303Z,4.90
2019-01-18T01:15:59.288Z,4.80
2019-01-18T01:16:59.284Z,3.90
2019-01-18T01:17:59.275Z,4.90
2019-01-18T01:18:59.257Z,3.50
2019-01-18T01:19:59.239Z,4.00
2019-01-18T01:20:59.247Z,5.80
2019-01-18T01:21:59.218Z,6.30
2019-01-18T01:22:59.222Z,4.30
2019-01-18T01:23:59.202Z,3.80
2019-01-18T01:24:59.186Z,1.80
2019-01-18T01:25:59.172Z,2.60
2019-01-18T01:26:59.168Z,2.20
2019-01-18T01:27:59.168Z,1.20
2019-01-18T01:28:59.154Z,1.90
2019-01-18T01:29:59.123Z,2.70
2019-01-18T01:30:59.113Z,2.50
2019-01-18T01:31:59.113Z,2.70
2019-01-18T01:32:59.127Z,3.30
2019-01-18T01:33:59.084Z,1.20
2019-01-18T01:34:59.067Z,1.60
2019-01-18T01:35:59.073Z,1.80
2019-01-18T01:36:59.051Z,1.40
2019-01-18T01:37:59.083Z,3.00
2019-01-18T01:38:59.032Z,2.00
2019-01-18T01:39:59.022Z,2.90
2019-01-18T01:40:59.003Z,2.00
2019-01-18T01:41:59.011Z,2.20
2019-01-18T01:42:58.999Z,1.50
2019-01-18T01:43:58.983Z,1.10
2019-01-18T01:44:58.971Z,3.20
2019-01-18T01:45:59.448Z,3.20
2019-01-18T01:46:58.945Z,2.90
2019-01-18T01:47:58.950Z,2.10
2019-01-18T01:48:58.929Z,2.00
2019-01-18T01:49:58.913Z,2.80
2019-01-18T01:50:58.899Z,3.60
2019-01-18T01:51:58.889Z,3.30
2019-01-18T01:52:58.903Z,4.20
2019-01-18T01:53:58.863Z,4.30
2019-01-18T01:54:58.858Z,2.70
2019-01-18T01:55:58.841Z,3.60
2019-01-18T01:56:58.841Z,4.40
2019-01-18T01:57:58.847Z,2.40
2019-01-18T01:58:58.825Z,2.50
2019-01-18T01:59:58.806Z,2.60
2019-01-18T02:00:58.795Z,2.90
2019-01-18T02:01:58.779Z,5.00
2019-01-18T02:02:58.802Z,2.20
2019-01-18T02:03:58.757Z,3.40
2019-01-18T02:04:58.763Z,1.80
2019-01-18T02:05:58.739Z,4.80
2019-01-18T02:06:58.727Z,2.10
2019-01-18T02:07:58.726Z,2.50
2019-01-18T02:08:58.724Z,4.90
2019-01-18T02:09:58.699Z,4.00
2019-01-18T02:10:58.679Z,2.40
2019-01-18T02:11:58.673Z,3.40
2019-01-18T02:12:58.671Z,3.70
2019-01-18T02:13:58.672Z,2.70
2019-01-18T02:14:58.641Z,5.30
2019-01-18T02:15:58.616Z,4.90
2019-01-18T02:16:58.627Z,1.90
2019-01-18T02:17:58.596Z,5.70
2019-01-18T02:18:58.606Z,2.50
2019-01-18T02:19:58.576Z,3.70
2019-01-18T02:20:58.573Z,3.40
2019-01-18T02:21:58.557Z,5.40
2019-01-18T02:22:58.556Z,2.80
2019-01-18T02:23:58.546Z,3.00
2019-01-18T02:24:58.528Z,2.90
2019-01-18T02:25:58.514Z,4.00
2019-01-18T02:26:58.506Z,3.10
2019-01-18T02:27:58.489Z,2.90
2019-01-18T02:28:58.504Z,6.00
2019-01-18T02:29:58.464Z,2.20
2019-01-18T02:30:58.477Z,4.20
2019-01-18T02:31:58.455Z,2.90
2019-01-18T02:32:58.448Z,5.40
2019-01-18T02:33:58.441Z,3.40
2019-01-18T02:34:58.414Z,4.20
2019-01-18T02:35:58.404Z,4.60
2019-01-18T02:36:58.402Z,4.20
2019-01-18T02:37:58.392Z,5.60
2019-01-18T02:38:58.400Z,3.10
2019-01-18T02:39:58.372Z,2.40
2019-01-18T02:40:58.349Z,3.50
2019-01-18T02:41:58.346Z,3.70
2019-01-18T02:42:58.338Z,4.00
2019-01-18T02:43:58.318Z,2.50
2019-01-18T02:44:58.336Z,3.60
2019-01-18T02:45:58.309Z,2.20
2019-01-18T02:46:58.285Z,2.60
2019-01-18T02:47:58.278Z,3.20
2019-01-18T02:48:58.269Z,3.30
2019-01-18T02:49:58.288Z,4.10
2019-01-18T02:50:58.240Z,3.60
2019-01-18T02:51:58.235Z,3.40
2019-01-18T02:52:58.225Z,5.70
2019-01-18T02:53:58.209Z,2.10
2019-01-18T02:54:58.223Z,3.70
2019-01-18T02:55:58.189Z,4.50
2019-01-18T02:56:58.183Z,2.90
2019-01-18T02:57:58.161Z,3.30
2019-01-18T02:58:58.160Z,3.50
2019-01-18T03:00:04.791Z,1.90
2019-01-18T03:00:59.132Z,5.60
2019-01-18T03:01:58.117Z,4.70
2019-01-18T03:02:58.108Z,6.90
2019-01-18T03:03:58.101Z,3.70
2019-01-18T03:04:58.103Z,3.70
2019-01-18T03:05:58.083Z,4.50
2019-01-18T03:06:58.053Z,2.80
2019-01-18T03:07:58.060Z,3.10
2019-01-18T03:08:58.038Z,3.10
2019-01-18T03:09:58.043Z,2.60
2019-01-18T03:10:58.015Z,4.20
2019-01-18T03:11:58.015Z,4.20
2019-01-18T03:12:57.993Z,3.20
2019-01-18T03:13:57.990Z,4.00
2019-01-18T03:14:58.003Z,3.00
2019-01-18T03:15:57.978Z,4.30
2019-01-18T03:16:57.953Z,3.50
2019-01-18T03:17:57.950Z,3.30
2019-01-18T03:18:57.928Z,4.20
2019-01-18T03:19:57.951Z,3.50
2019-01-18T03:20:57.913Z,4.10
2019-01-18T03:21:57.898Z,3.00
2019-01-18T03:22:57.898Z,2.90
2019-01-18T03:23:57.867Z,4.00
2019-01-18T03:24:57.875Z,3.40
2019-01-18T03:25:57.873Z,5.70
2019-01-18T03:26:57.849Z,4.50
2019-01-18T03:27:57.829Z,5.70
2019-01-18T03:28:57.824Z,6.80
2019-01-18T03:29:57.812Z,3.00
2019-01-18T03:30:57.831Z,5.90
2019-01-18T03:31:57.808Z,4.20
2019-01-18T03:32:57.779Z,4.80
2019-01-18T03:33:57.771Z,2.80
2019-01-18T03:34:57.768Z,3.50
2019-01-18T03:35:57.763Z,4.70
2019-01-18T03:36:57.731Z,5.50
2019-01-18T03:37:57.724Z,4.80
2019-01-18T03:38:57.712Z,3.40
2019-01-18T03:39:57.700Z,2.90
2019-01-18T03:40:57.731Z,5.90
2019-01-18T03:41:57.687Z,4.70
2019-01-18T03:42:57.663Z,4.80
2019-01-18T03:43:57.659Z,4.70
2019-01-18T03:44:57.648Z,6.00
2019-01-18T03:45:57.660Z,3.30
2019-01-18T03:46:57.626Z,3.50
2019-01-18T03:47:57.609Z,6.50
2019-01-18T03:48:57.614Z,5.10
2019-01-18T03:49:57.596Z,2.90
2019-01-18T03:50:57.599Z,5.40
2019-01-18T03:51:57.574Z,3.50
2019-01-18T03:52:57.561Z,4.10
2019-01-18T03:53:57.546Z,5.00
2019-01-18T03:54:57.544Z,4.10
2019-01-18T03:55:57.546Z,5.90
2019-01-18T03:56:57.521Z,4.70
2019-01-18T03:57:57.530Z,6.00
2019-01-18T03:58:57.499Z,4.40
2019-01-18T03:59:57.475Z,4.50
2019-01-18T04:00:57.488Z,6.20
2019-01-18T04:01:57.462Z,4.50
2019-01-18T04:02:57.461Z,4.80
2019-01-18T04:03:57.477Z,4.10
2019-01-18T04:04:57.429Z,5.60
2019-01-18T04:05:57.444Z,4.60
2019-01-18T04:06:57.412Z,4.10
2019-01-18T04:07:57.387Z,1.70
2019-01-18T04:08:57.387Z,6.60
2019-01-18T04:09:57.377Z,5.70
2019-01-18T04:10:57.394Z,4.00
2019-01-18T04:11:57.358Z,4.40
2019-01-18T04:12:57.346Z,2.70
2019-01-18T04:13:57.330Z,5.00
2019-01-18T04:14:57.336Z,5.20
2019-01-18T04:15:57.316Z,3.20
2019-01-18T04:16:57.321Z,4.10
2019-01-18T04:17:57.279Z,5.70
2019-01-18T04:18:57.281Z,4.60
2019-01-18T04:19:57.273Z,5.70
2019-01-18T04:20:57.252Z,4.20
2019-01-18T04:21:57.252Z,5.10
2019-01-18T04:22:57.233Z,5.90
2019-01-18T04:23:57.222Z,4.60
2019-01-18T04:24:57.213Z,5.00
2019-01-18T04:25:57.207Z,3.90
2019-01-18T04:26:57.211Z,5.70
2019-01-18T04:27:57.177Z,5.40
2019-01-18T04:28:57.160Z,3.40
2019-01-18T04:29:57.154Z,4.20
2019-01-18T04:30:57.131Z,3.50
2019-01-18T04:31:57.144Z,4.00
2019-01-18T04:32:57.126Z,4.90
2019-01-18T04:33:57.107Z,3.10
2019-01-18T04:34:57.129Z,2.80
2019-01-18T04:35:57.091Z,4.50
2019-01-18T04:36:57.100Z,5.00
2019-01-18T04:37:57.064Z,4.70
2019-01-18T04:38:57.055Z,5.50
2019-01-18T04:39:57.062Z,5.00
2019-01-18T04:40:57.035Z,4.40
2019-01-18T04:41:57.068Z,4.40
2019-01-18T04:42:57.017Z,3.40
2019-01-18T04:43:57.013Z,5.10
2019-01-18T04:44:56.995Z,4.20
2019-01-18T04:45:56.996Z,2.40
2019-01-18T04:46:56.973Z,2.40
2019-01-18T04:47:56.981Z,5.10
2019-01-18T04:48:56.999Z,6.40
2019-01-18T04:49:56.929Z,4.70
2019-01-18T04:50:56.919Z,2.60
2019-01-18T04:51:56.907Z,2.20
2019-01-18T04:52:56.920Z,3.50
2019-01-18T04:53:56.906Z,4.30
2019-01-18T04:54:56.881Z,2.40
2019-01-18T04:55:56.877Z,2.50
2019-01-18T04:56:56.863Z,1.60
2019-01-18T04:57:56.875Z,3.50
2019-01-18T04:58:56.850Z,2.20
2019-01-18T04:59:56.830Z,2.90
2019-01-18T05:00:56.809Z,3.30
2019-01-18T05:01:56.812Z,4.60
2019-01-18T05:02:56.879Z,2.80
2019-01-18T05:03:56.797Z,1.80
2019-01-18T05:04:56.769Z,3.80
2019-01-18T05:05:56.756Z,4.00
2019-01-18T05:06:56.750Z,3.90
2019-01-18T05:07:56.763Z,3.30
2019-01-18T05:08:56.728Z,2.80
2019-01-18T05:09:56.723Z,2.90
2019-01-18T05:10:56.705Z,5.90
2019-01-18T05:11:56.711Z,4.40
2019-01-18T05:12:56.710Z,2.70
2019-01-18T05:13:56.697Z,3.70
2019-01-18T05:14:56.660Z,5.30
2019-01-18T05:15:56.657Z,2.60
2019-01-18T05:16:56.641Z,3.80
2019-01-18T05:17:56.644Z,3.30
2019-01-18T05:18:56.630Z,4.50
2019-01-18T05:19:56.612Z,2.50
2019-01-18T05:20:56.612Z,3.60
2019-01-18T05:21:56.586Z,1.80
2019-01-18T05:22:56.598Z,3.10
2019-01-18T05:23:56.574Z,3.70
2019-01-18T05:24:56.574Z,3.60
2019-01-18T05:25:56.549Z,3.30
2019-01-18T05:26:56.532Z,2.80
2019-01-18T05:27:56.545Z,2.40
2019-01-18T05:28:56.522Z,3.90
2019-01-18T05:29:56.504Z,2.30
2019-01-18T05:30:56.492Z,3.00
2019-01-18T05:31:56.482Z,2.30
2019-01-18T05:32:56.474Z,2.50
2019-01-18T05:33:56.481Z,3.20
2019-01-18T05:34:56.462Z,3.10
2019-01-18T05:35:56.443Z,3.10
2019-01-18T05:36:56.442Z,2.80
2019-01-18T05:37:56.419Z,4.20
2019-01-18T05:38:56.420Z,2.90
2019-01-18T05:39:56.395Z,3.00
2019-01-18T05:40:56.382Z,2.70
2019-01-18T05:41:56.370Z,3.00
2019-01-18T05:42:56.356Z,2.70
2019-01-18T05:43:56.363Z,2.30
2019-01-18T05:44:56.331Z,3.20
2019-01-18T05:45:56.343Z,2.50
2019-01-18T05:46:56.313Z,4.50
2019-01-18T05:47:56.311Z,2.40
2019-01-18T05:48:56.312Z,3.00
2019-01-18T05:49:56.286Z,4.40
2019-01-18T05:50:56.265Z,5.20
2019-01-18T05:51:56.255Z,1.90
2019-01-18T05:52:56.251Z,1.60
2019-01-18T05:53:56.263Z,4.70
2019-01-18T05:54:56.228Z,3.10
2019-01-18T05:55:56.220Z,2.50
2019-01-18T05:56:56.199Z,1.70
2019-01-18T05:57:56.186Z,7.30
2019-01-18T05:58:56.196Z,3.80
2019-01-18T05:59:56.175Z,4.20
2019-01-18T06:00:56.217Z,2.30
2019-01-18T06:01:56.154Z,4.80
2019-01-18T06:02:56.151Z,1.90
2019-01-18T06:03:56.144Z,2.00
2019-01-18T06:04:56.137Z,3.20
2019-01-18T06:05:56.101Z,3.80
2019-01-18T06:06:56.092Z,1.70
2019-01-18T06:07:56.083Z,2.80
2019-01-18T06:08:56.092Z,1.70
2019-01-18T06:09:56.055Z,3.10
2019-01-18T06:10:56.045Z,2.90
2019-01-18T06:11:56.037Z,2.40
2019-01-18T06:12:56.026Z,2.20
2019-01-18T06:13:56.013Z,4.20
2019-01-18T06:14:56.013Z,4.30
2019-01-18T06:15:56.006Z,2.20
2019-01-18T06:16:55.996Z,1.20
2019-01-18T06:17:55.975Z,1.50
2019-01-18T06:18:55.973Z,2.70
2019-01-18T06:19:55.971Z,2.10
2019-01-18T06:20:55.945Z,2.80
2019-01-18T06:21:55.935Z,3.10
2019-01-18T06:22:55.937Z,2.10
2019-01-18T06:23:55.920Z,2.70
2019-01-18T06:24:55.930Z,1.40
2019-01-18T06:25:55.899Z,2.50
2019-01-18T06:26:55.878Z,2.00
2019-01-18T06:27:55.868Z,4.50
2019-01-18T06:28:55.858Z,1.60
2019-01-18T06:29:55.873Z,2.30
2019-01-18T06:31:01.590Z,4.70
2019-01-18T06:31:56.843Z,2.50
2019-01-18T06:32:55.842Z,3.40
2019-01-18T06:33:55.799Z,3.40
2019-01-18T06:34:55.844Z,2.00
2019-01-18T06:35:55.779Z,2.00
2019-01-18T06:36:56.030Z,2.70
2019-01-18T06:37:55.754Z,2.60
2019-01-18T06:38:55.753Z,3.80
2019-01-18T06:39:55.784Z,4.00
2019-01-18T06:40:55.728Z,1.90
2019-01-18T06:41:55.713Z,1.90
2019-01-18T06:42:55.699Z,2.30
2019-01-18T06:43:55.692Z,2.80
2019-01-18T06:44:55.755Z,4.00
2019-01-18T06:45:55.680Z,2.10
2019-01-18T06:46:55.662Z,2.20
2019-01-18T06:47:55.646Z,1.90
2019-01-18T06:48:55.639Z,1.00
2019-01-18T06:49:55.655Z,2.00
2019-01-18T06:50:55.622Z,1.50
2019-01-18T06:51:55.612Z,1.80
2019-01-18T06:52:55.608Z,2.60
2019-01-18T06:53:55.584Z,2.60
2019-01-18T06:54:55.576Z,2.30
2019-01-18T06:55:55.589Z,2.30
2019-01-18T06:56:55.552Z,2.20
2019-01-18T06:57:55.548Z,2.40
2019-01-18T06:58:55.540Z,1.80
2019-01-18T06:59:55.518Z,1.90
2019-01-18T07:00:55.592Z,2.20
2019-01-18T07:01:55.496Z,2.40
2019-01-18T07:02:55.486Z,1.20
2019-01-18T07:03:55.469Z,3.20
2019-01-18T07:04:55.474Z,2.50
2019-01-18T07:05:55.475Z,1.70
2019-01-18T07:06:55.448Z,2.60
2019-01-18T07:07:55.427Z,2.20
2019-01-18T07:08:55.432Z,2.50
2019-01-18T07:09:55.403Z,3.30
2019-01-18T07:10:55.418Z,2.70
2019-01-18T07:11:55.398Z,2.60
2019-01-18T07:12:55.375Z,1.90
2019-01-18T07:13:55.364Z,3.40
2019-01-18T07:14:55.367Z,4.00
2019-01-18T07:15:55.367Z,2.50
2019-01-18T07:16:55.322Z,2.70
2019-01-18T07:17:55.324Z,2.40
2019-01-18T07:18:55.303Z,3.50
2019-01-18T07:19:55.305Z,1.80
2019-01-18T07:20:55.310Z,3.00
2019-01-18T07:21:55.279Z,1.50
2019-01-18T07:22:55.273Z,1.50
2019-01-18T07:23:55.253Z,2.20
2019-01-18T07:24:55.300Z,2.60
2019-01-18T07:25:55.247Z,3.30
2019-01-18T07:26:55.215Z,1.60
2019-01-18T07:27:55.207Z,2.00
2019-01-18T07:28:55.199Z,1.90
2019-01-18T07:29:55.185Z,2.20
2019-01-18T07:30:55.188Z,1.60
2019-01-18T07:31:55.171Z,3.30
2019-01-18T07:32:55.152Z,1.70
2019-01-18T07:33:55.138Z,2.60
2019-01-18T07:34:55.148Z,3.60
2019-01-18T07:35:55.149Z,2.00
2019-01-18T07:36:55.120Z,2.80
2019-01-18T07:37:55.118Z,1.80
2019-01-18T07:39:00.500Z,2.40
2019-01-18T07:39:56.077Z,2.00
2019-01-18T07:40:55.083Z,2.10
2019-01-18T07:41:55.057Z,2.80
2019-01-18T07:42:55.038Z,3.10
2019-01-18T07:43:55.035Z,2.40
2019-01-18T07:44:55.032Z,2.10
2019-01-18T07:45:55.049Z,4.10
2019-01-18T07:46:54.997Z,3.30
2019-01-18T07:47:54.988Z,3.00
2019-01-18T07:48:54.994Z,2.60
2019-01-18T07:49:54.965Z,4.00
2019-01-18T07:50:54.958Z,3.40
2019-01-18T07:51:54.954Z,2.70
2019-01-18T07:52:54.958Z,3.70
2019-01-18T07:53:54.939Z,3.50
2019-01-18T07:54:54.906Z,3.10
2019-01-18T07:55:54.896Z,4.00
2019-01-18T07:56:54.922Z,3.90
2019-01-18T07:57:54.896Z,2.80
2019-01-18T07:58:54.861Z,3.30
2019-01-18T07:59:54.856Z,3.30
2019-01-18T08:00:54.847Z,2.50
2019-01-18T08:01:54.859Z,3.10
2019-01-18T08:02:54.828Z,3.80
2019-01-18T08:03:54.830Z,2.90
2019-01-18T08:04:54.801Z,3.80
2019-01-18T08:05:54.787Z,2.90
2019-01-18T08:06:54.815Z,3.60
2019-01-18T08:07:54.769Z,2.90
2019-01-18T08:08:54.768Z,4.20
2019-01-18T08:09:54.748Z,2.30
2019-01-18T08:10:54.745Z,3.30
2019-01-18T08:11:54.768Z,3.50
2019-01-18T08:12:54.711Z,2.60
2019-01-18T08:13:54.701Z,2.40
2019-01-18T08:14:54.705Z,3.20
2019-01-18T08:15:54.683Z,2.10
2019-01-18T08:16:54.684Z,3.60
2019-01-18T08:17:54.691Z,3.50
2019-01-18T08:18:54.655Z,3.00
2019-01-18T08:19:54.635Z,3.00
2019-01-18T08:20:54.640Z,2.90
2019-01-18T08:21:54.617Z,2.90
2019-01-18T08:22:54.630Z,3.60
2019-01-18T08:23:54.600Z,4.20
2019-01-18T08:24:54.582Z,3.40
2019-01-18T08:25:54.583Z,3.90
2019-01-18T08:26:54.557Z,2.60
2019-01-18T08:27:54.570Z,2.80
2019-01-18T08:28:54.586Z,3.30
2019-01-18T08:29:54.529Z,2.90
2019-01-18T08:30:54.512Z,3.70
2019-01-18T08:31:54.537Z,2.90
2019-01-18T08:32:54.513Z,2.00
2019-01-18T08:33:54.487Z,2.20
2019-01-18T08:34:54.479Z,2.60
2019-01-18T08:35:54.501Z,1.90
2019-01-18T08:36:54.498Z,3.10
2019-01-18T08:37:54.462Z,4.50
2019-01-18T08:38:54.442Z,3.40
2019-01-18T08:39:54.426Z,2.00
2019-01-18T08:40:54.405Z,2.90
2019-01-18T08:41:54.393Z,2.80
2019-01-18T08:42:54.389Z,3.70
2019-01-18T08:43:54.385Z,3.40
2019-01-18T08:44:54.364Z,4.80
2019-01-18T08:45:54.363Z,3.30
2019-01-18T08:46:54.381Z,4.30
2019-01-18T08:47:54.337Z,2.10
2019-01-18T08:48:54.323Z,2.50
2019-01-18T08:49:54.308Z,3.50
2019-01-18T08:50:54.286Z,4.30
2019-01-18T08:51:54.282Z,2.10
2019-01-18T08:52:54.298Z,2.70
2019-01-18T08:53:54.260Z,3.60
2019-01-18T08:54:54.261Z,3.20
2019-01-18T08:55:54.237Z,4.10
2019-01-18T08:56:54.225Z,3.60
2019-01-18T08:57:54.251Z,3.60
2019-01-18T08:58:54.225Z,3.90
2019-01-18T08:59:54.208Z,3.30
2019-01-18T09:00:54.189Z,4.00
2019-01-18T09:01:54.179Z,3.60
2019-01-18T09:02:54.165Z,4.80
2019-01-18T09:03:54.165Z,3.10
2019-01-18T09:04:54.141Z,5.80
2019-01-18T09:05:54.131Z,4.40
2019-01-18T09:06:54.133Z,4.80
2019-01-18T09:07:55.278Z,7.30
2019-01-18T09:08:54.110Z,4.70
2019-01-18T09:09:54.091Z,6.20
2019-01-18T09:10:54.074Z,3.60
2019-01-18T09:11:54.058Z,3.30
2019-01-18T09:12:54.047Z,5.70
2019-01-18T09:13:54.055Z,4.50
2019-01-18T09:14:54.035Z,4.80
2019-01-18T09:15:54.023Z,6.20
2019-01-18T09:16:54.003Z,5.00
2019-01-18T09:17:53.997Z,4.70
2019-01-18T09:18:54.004Z,6.50
2019-01-18T09:19:53.970Z,14.40
2019-01-18T09:20:53.964Z,7.20
2019-01-18T09:21:53.959Z,8.60
2019-01-18T09:22:53.954Z,12.80
2019-01-18T09:23:53.950Z,6.50
2019-01-18T09:24:53.925Z,8.60
2019-01-18T09:25:53.915Z,4.20
2019-01-18T09:26:53.900Z,7.80
2019-01-18T09:27:53.899Z,5.80
2019-01-18T09:28:53.897Z,4.50
2019-01-18T09:29:53.876Z,5.20
2019-01-18T09:30:53.933Z,7.10
2019-01-18T09:31:53.853Z,5.20
2019-01-18T09:32:53.836Z,7.10
2019-01-18T09:33:53.845Z,8.40
2019-01-18T09:34:54.937Z,7.40
2019-01-18T09:35:53.798Z,4.30
2019-01-18T09:36:53.794Z,5.80
2019-01-18T09:37:53.783Z,4.50
2019-01-18T09:38:53.802Z,7.00
2019-01-18T09:39:53.773Z,8.20
2019-01-18T09:40:53.772Z,9.90
2019-01-18T09:41:53.733Z,4.90
2019-01-18T09:42:53.723Z,6.80
2019-01-18T09:43:53.720Z,6.40
2019-01-18T09:44:53.716Z,6.50
2019-01-18T09:45:53.708Z,9.30
2019-01-18T09:46:53.673Z,7.90
2019-01-18T09:47:53.682Z,5.30
2019-01-18T09:48:53.666Z,7.40
2019-01-18T09:49:53.669Z,7.60
2019-01-18T09:50:53.651Z,8.30
2019-01-18T09:51:53.626Z,7.70
2019-01-18T09:52:53.618Z,9.90
2019-01-18T09:53:53.612Z,6.50
2019-01-18T09:54:53.617Z,9.90
2019-01-18T09:55:53.583Z,8.80
2019-01-18T09:56:53.578Z,6.60
2019-01-18T09:57:53.554Z,9.00
2019-01-18T09:58:53.547Z,8.10
2019-01-18T09:59:53.551Z,6.70
2019-01-18T10:00:53.545Z,4.80
2019-01-18T10:01:53.516Z,6.30
2019-01-18T10:02:53.512Z,6.20
2019-01-18T10:03:53.494Z,5.50
2019-01-18T10:04:53.513Z,6.40
2019-01-18T10:05:53.469Z,5.90
2019-01-18T10:06:53.495Z,9.20
2019-01-18T10:07:53.447Z,5.10
2019-01-18T10:08:53.446Z,8.00
2019-01-18T10:09:53.459Z,5.60
2019-01-18T10:10:53.420Z,7.10
2019-01-18T10:11:53.413Z,5.20
2019-01-18T10:12:53.394Z,7.60
2019-01-18T10:13:53.385Z,7.30
2019-01-18T10:14:53.403Z,7.30
2019-01-18T10:15:53.359Z,7.50
2019-01-18T10:16:53.354Z,7.70
2019-01-18T10:17:53.341Z,5.60
2019-01-18T10:18:53.349Z,4.80
2019-01-18T10:19:53.363Z,5.60
2019-01-18T10:20:53.303Z,6.00
2019-01-18T10:21:53.333Z,6.70
2019-01-18T10:22:53.285Z,5.90
2019-01-18T10:23:53.327Z,4.30
2019-01-18T10:24:53.270Z,4.50
2019-01-18T10:25:53.279Z,7.50
2019-01-18T10:26:53.315Z,7.00
2019-01-18T10:27:53.229Z,6.40
2019-01-18T10:28:53.223Z,10.10
2019-01-18T10:29:53.205Z,8.40
2019-01-18T10:30:53.227Z,6.20
2019-01-18T10:31:56.281Z,5.40
2019-01-18T10:32:53.177Z,7.90
2019-01-18T10:33:53.165Z,6.90
2019-01-18T10:34:53.160Z,5.50
2019-01-18T10:35:53.154Z,6.60
2019-01-18T10:36:53.146Z,5.90
2019-01-18T10:37:53.121Z,10.10
2019-01-18T10:38:53.112Z,6.50
2019-01-18T10:39:53.101Z,8.70
2019-01-18T10:40:53.107Z,7.80
2019-01-18T10:41:53.090Z,7.80
2019-01-18T10:42:53.084Z,4.50
2019-01-18T10:43:53.081Z,6.10
2019-01-18T10:44:53.042Z,6.70
2019-01-18T10:45:53.045Z,6.30
2019-01-18T10:46:53.027Z,5.20
2019-01-18T10:47:53.016Z,5.60
2019-01-18T10:48:52.998Z,7.30
2019-01-18T10:49:52.984Z,5.60
2019-01-18T10:50:52.996Z,7.40
2019-01-18T10:51:52.984Z,6.40
2019-01-18T10:52:52.961Z,9.20
2019-01-18T10:53:52.945Z,6.50
2019-01-18T10:54:52.934Z,4.60
2019-01-18T10:55:52.933Z,8.90
2019-01-18T10:56:52.912Z,5.50
2019-01-18T10:57:52.910Z,7.30
2019-01-18T10:58:52.908Z,6.50
2019-01-18T10:59:52.888Z,6.60
2019-01-18T11:00:52.916Z,5.60
2019-01-18T11:01:52.858Z,9.90
2019-01-18T11:02:52.848Z,10.30
2019-01-18T11:03:52.840Z,6.30
2019-01-18T11:04:52.824Z,6.60
2019-01-18T11:05:52.834Z,7.30
2019-01-18T11:06:52.803Z,7.00
2019-01-18T11:07:52.802Z,6.90
2019-01-18T11:08:52.780Z,5.60
2019-01-18T11:09:52.777Z,5.00
2019-01-18T11:10:52.806Z,10.80
2019-01-18T11:11:52.768Z,7.50
2019-01-18T11:12:52.742Z,6.60
2019-01-18T11:13:52.727Z,7.10
2019-01-18T11:14:52.722Z,9.10
2019-01-18T11:15:52.736Z,7.40
2019-01-18T11:16:52.708Z,7.90
2019-01-18T11:17:52.680Z,5.10
2019-01-18T11:18:52.671Z,6.20
2019-01-18T11:19:52.664Z,9.30
2019-01-18T11:20:52.646Z,8.00
2019-01-18T11:21:52.667Z,4.60
2019-01-18T11:22:52.630Z,8.20
2019-01-18T11:23:52.623Z,6.20
2019-01-18T11:24:52.617Z,6.30
2019-01-18T11:25:52.584Z,5.40
2019-01-18T11:26:52.609Z,4.70
2019-01-18T11:27:52.583Z,8.30
2019-01-18T11:28:52.561Z,6.60
2019-01-18T11:29:52.549Z,9.20
2019-01-18T11:30:52.557Z,5.90
2019-01-18T11:31:52.557Z,6.40
2019-01-18T11:32:52.527Z,9.50
2019-01-18T11:33:52.501Z,5.60
2019-01-18T11:34:52.486Z,5.00
2019-01-18T11:35:52.488Z,5.60
2019-01-18T11:36:56.434Z,4.90
2019-01-18T11:37:52.471Z,4.40
2019-01-18T11:38:52.455Z,7.20
2019-01-18T11:39:52.435Z,6.50
2019-01-18T11:40:52.561Z,4.00
2019-01-18T11:41:52.500Z,5.60
2019-01-18T11:42:52.413Z,7.20
2019-01-18T11:43:52.402Z,8.00
2019-01-18T11:44:52.390Z,5.00
2019-01-18T11:45:52.401Z,7.50
2019-01-18T11:46:52.441Z,12.80
2019-01-18T11:47:52.356Z,5.40
2019-01-18T11:48:52.347Z,7.10
2019-01-18T11:49:52.334Z,8.30
2019-01-18T11:50:52.330Z,8.90
2019-01-18T11:51:52.341Z,7.70
2019-01-18T11:52:52.298Z,6.20
2019-01-18T11:53:52.292Z,7.10
2019-01-18T11:54:52.269Z,8.40
2019-01-18T11:55:52.268Z,9.00
2019-01-18T11:56:52.272Z,7.40
2019-01-18T11:57:52.242Z,5.60
2019-01-18T11:58:52.232Z,8.10
2019-01-18T11:59:52.227Z,5.90
2019-01-18T12:00:52.209Z,6.90
2019-01-18T12:01:52.229Z,6.50
2019-01-18T12:02:52.183Z,4.20
2019-01-18T12:03:52.184Z,6.10
2019-01-18T12:04:52.165Z,6.50
2019-01-18T12:05:52.158Z,5.20
2019-01-18T12:06:52.153Z,8.40
2019-01-18T12:07:52.128Z,5.80
2019-01-18T12:08:52.133Z,5.80
2019-01-18T12:09:52.111Z,6.40
2019-01-18T12:10:52.103Z,5.20
2019-01-18T12:11:52.113Z,7.60
2019-01-18T12:12:52.082Z,6.60
2019-01-18T12:13:52.063Z,5.30
2019-01-18T12:14:52.058Z,6.20
2019-01-18T12:15:52.053Z,8.00
2019-01-18T12:16:52.075Z,5.90
2019-01-18T12:17:52.024Z,8.50
2019-01-18T12:18:52.016Z,6.30
2019-01-18T12:19:51.988Z,7.30
2019-01-18T12:20:51.991Z,5.80
2019-01-18T12:21:52.022Z,8.00
2019-01-18T12:22:51.970Z,6.20
2019-01-18T12:23:51.956Z,7.50
2019-01-18T12:24:51.939Z,6.60
2019-01-18T12:25:51.944Z,8.00
2019-01-18T12:26:51.918Z,5.60
2019-01-18T12:27:51.923Z,6.20
2019-01-18T12:28:51.903Z,5.40
2019-01-18T12:29:51.895Z,7.30
2019-01-18T12:30:51.874Z,6.30
2019-01-18T12:31:51.871Z,9.00
2019-01-18T12:32:51.882Z,8.10
2019-01-18T12:33:51.862Z,5.90
2019-01-18T12:34:51.877Z,7.70
2019-01-18T12:35:51.870Z,7.50
2019-01-18T12:36:55.240Z,7.90
2019-01-18T12:37:52.835Z,6.20
2019-01-18T12:38:51.809Z,8.30
2019-01-18T12:39:52.557Z,6.80
2019-01-18T12:40:51.758Z,5.30
2019-01-18T12:41:51.770Z,5.30
2019-01-18T12:42:51.788Z,6.70
2019-01-18T12:43:51.742Z,4.80
2019-01-18T12:44:51.718Z,6.60
2019-01-18T12:45:51.726Z,5.50
2019-01-18T12:46:51.697Z,5.20
2019-01-18T12:47:51.733Z,6.60
2019-01-18T12:48:51.672Z,5.10
2019-01-18T12:49:51.675Z,5.10
2019-01-18T12:50:51.653Z,5.40
2019-01-18T12:51:51.651Z,6.90
2019-01-18T12:52:51.662Z,7.00
2019-01-18T12:53:51.627Z,6.70
2019-01-18T12:54:51.612Z,6.20
2019-01-18T12:55:51.610Z,5.80
2019-01-18T12:56:51.597Z,5.20
2019-01-18T12:57:51.817Z,4.90
2019-01-18T12:58:51.593Z,7.60
2019-01-18T12:59:51.555Z,4.90
2019-01-18T13:00:51.548Z,5.60
2019-01-18T13:01:51.535Z,7.70
2019-01-18T13:02:51.529Z,4.60
2019-01-18T13:03:51.543Z,7.10
2019-01-18T13:04:51.521Z,7.00
2019-01-18T13:05:51.494Z,5.20
2019-01-18T13:06:51.495Z,5.90
2019-01-18T13:07:51.484Z,5.60
2019-01-18T13:08:51.465Z,4.60
2019-01-18T13:09:51.451Z,6.90
2019-01-18T13:10:51.447Z,6.40
2019-01-18T13:11:51.433Z,5.80
2019-01-18T13:12:51.430Z,5.50
2019-01-18T13:13:51.413Z,7.50
2019-01-18T13:14:51.402Z,4.70
2019-01-18T13:15:51.379Z,5.70
2019-01-18T13:16:51.377Z,6.00
2019-01-18T13:17:51.372Z,5.30